createdAt,value
2024-04-08T00:01:03.538Z,70.10
2024-04-08T00:03:30.703Z,69.95
2024-04-08T00:05:57.749Z,70.23
2024-04-08T00:08:25.167Z,69.98
2024-04-08T00:10:52.065Z,70.12
2024-04-08T00:13:18.919Z,70.16
2024-04-08T00:15:46.075Z,70.37
2024-04-08T00:18:14.158Z,69.89
2024-04-08T00:20:41.073Z,70.42
2024-04-08T00:23:08.131Z,70.25
2024-04-08T00:25:35.409Z,70.43
2024-04-08T00:28:02.236Z,70.54
2024-04-08T00:30:29.104Z,70.72
2024-04-08T00:32:55.975Z,70.59
2024-04-08T00:35:22.869Z,70.71
2024-04-08T00:37:50.156Z,70.76
2024-04-08T00:40:17.279Z,70.64
2024-04-08T00:42:46.471Z,70.58
2024-04-08T00:45:13.558Z,70.63
2024-04-08T00:47:40.497Z,70.66
2024-04-08T00:50:07.795Z,70.94
2024-04-08T00:52:35.091Z,70.94
2024-04-08T00:55:02.299Z,70.93
2024-04-08T00:57:30.835Z,71.02
2024-04-08T00:59:58.807Z,70.96
2024-04-08T01:02:25.822Z,71.04
2024-04-08T01:04:52.726Z,71.03
2024-04-08T01:07:19.580Z,71.30
2024-04-08T01:09:46.420Z,71.42
2024-04-08T01:12:13.310Z,71.33
2024-04-08T01:14:41.122Z,71.49
2024-04-08T01:17:08.437Z,71.88
2024-04-08T01:19:35.296Z,71.75
2024-04-08T01:22:02.282Z,71.96
2024-04-08T01:24:29.423Z,72.01
2024-04-08T01:26:56.259Z,72.00
2024-04-08T01:29:23.247Z,71.98
2024-04-08T01:31:50.158Z,72.04
2024-04-08T01:34:17.024Z,71.92
2024-04-08T01:36:45.296Z,71.92
2024-04-08T01:39:12.326Z,71.63
2024-04-08T01:41:39.264Z,71.90
2024-04-08T01:44:06.512Z,71.73
2024-04-08T01:46:33.542Z,71.94
2024-04-08T01:49:00.805Z,72.25
2024-04-08T01:51:32.009Z,71.94
2024-04-08T01:54:00.737Z,71.99
2024-04-08T01:56:30.339Z,71.84
2024-04-08T01:58:57.252Z,71.78
2024-04-08T02:01:24.512Z,72.09
2024-04-08T02:03:51.536Z,72.08
2024-04-08T02:06:20.686Z,72.05
2024-04-08T02:08:47.608Z,71.95
2024-04-08T02:11:14.918Z,71.96
2024-04-08T02:13:42.995Z,71.88
2024-04-08T02:16:10.242Z,72.17
2024-04-08T02:18:37.594Z,71.89
2024-04-08T02:21:04.692Z,71.92
2024-04-08T02:23:31.545Z,71.99
2024-04-08T02:25:59.495Z,72.03
2024-04-08T02:28:26.508Z,71.99
2024-04-08T02:30:53.700Z,71.95
2024-04-08T02:33:20.627Z,72.00
2024-04-08T02:35:47.617Z,72.05
2024-04-08T02:38:14.602Z,72.30
2024-04-08T02:40:41.604Z,72.63
2024-04-08T02:43:11.725Z,72.49
2024-04-08T02:45:41.692Z,72.43
2024-04-08T02:48:09.313Z,72.81
2024-04-08T02:50:36.322Z,72.63
2024-04-08T02:53:03.255Z,72.89
2024-04-08T02:55:30.107Z,72.72
2024-04-08T02:57:57.099Z,72.94
2024-04-08T03:00:25.361Z,73.26
2024-04-08T03:02:52.268Z,73.20
2024-04-08T03:05:19.851Z,73.15
2024-04-08T03:07:46.809Z,73.00
2024-04-08T03:10:13.714Z,73.02
2024-04-08T03:12:40.670Z,73.33
2024-04-08T03:15:07.577Z,73.15
2024-04-08T03:17:34.713Z,73.23
2024-04-08T03:20:01.587Z,73.39
2024-04-08T03:22:29.196Z,73.33
2024-04-08T03:24:56.875Z,73.28
2024-04-08T03:27:23.907Z,73.14
2024-04-08T03:29:54.075Z,73.25
2024-04-08T03:32:20.974Z,73.23
2024-04-08T03:34:47.838Z,73.09
2024-04-08T03:37:14.867Z,73.21
2024-04-08T03:39:41.770Z,73.11
2024-04-08T03:42:09.406Z,72.80
2024-04-08T03:44:36.607Z,73.20
2024-04-08T03:47:03.690Z,73.41
2024-04-08T03:49:30.548Z,73.46
2024-04-08T03:51:57.504Z,73.27
2024-04-08T03:54:24.467Z,73.56
2024-04-08T03:56:51.514Z,73.56
2024-04-08T03:59:19.372Z,73.48
2024-04-08T04:01:46.216Z,73.17
2024-04-08T04:04:13.088Z,73.44
2024-04-08T04:06:40.213Z,73.59
2024-04-08T04:09:07.282Z,73.61
2024-04-08T04:11:34.433Z,73.46
2024-04-08T04:14:01.377Z,73.44
2024-04-08T04:16:28.556Z,73.71
2024-04-08T04:18:55.771Z,73.50
2024-04-08T04:21:23.023Z,73.43
2024-04-08T04:23:50.257Z,73.62
2024-04-08T04:26:17.124Z,73.66
2024-04-08T04:28:44.052Z,73.58
2024-04-08T04:31:10.917Z,73.61
2024-04-08T04:33:37.909Z,73.39
2024-04-08T04:36:05.158Z,73.46
2024-04-08T04:38:32.001Z,73.61
2024-04-08T04:41:06.286Z,73.55
2024-04-08T04:43:33.922Z,73.78
2024-04-08T04:46:01.048Z,73.74
2024-04-08T04:48:28.334Z,74.03
2024-04-08T04:50:55.607Z,73.95
2024-04-08T04:53:22.751Z,74.11
2024-04-08T04:55:56.000Z,74.04
2024-04-08T04:58:23.639Z,74.08
2024-04-08T05:00:51.520Z,74.10
2024-04-08T05:03:20.369Z,74.08
2024-04-08T05:05:56.945Z,74.21
2024-04-08T05:08:24.947Z,74.48
2024-04-08T05:10:52.301Z,74.41
2024-04-08T05:13:19.991Z,74.48
2024-04-08T05:16:00.735Z,74.85
2024-04-08T05:18:29.366Z,74.67
2024-04-08T05:21:03.705Z,74.83
2024-04-08T05:23:32.208Z,74.87
2024-04-08T05:25:59.711Z,74.86
2024-04-08T05:28:26.762Z,75.11
2024-04-08T05:30:53.694Z,75.29
2024-04-08T05:33:21.806Z,75.41
2024-04-08T05:35:48.912Z,75.60
2024-04-08T05:38:18.899Z,75.65
2024-04-08T05:40:45.863Z,75.71
2024-04-08T05:43:17.204Z,75.66
2024-04-08T05:45:44.626Z,76.03
2024-04-08T05:48:11.642Z,76.08
2024-04-08T05:50:38.761Z,76.33
2024-04-08T05:53:05.752Z,76.42
2024-04-08T05:55:33.026Z,76.35
2024-04-08T05:58:01.001Z,76.65
2024-04-08T06:00:28.353Z,76.65
2024-04-08T06:02:56.329Z,76.87
2024-04-08T06:05:26.127Z,76.75
2024-04-08T06:07:54.494Z,76.79
2024-04-08T06:10:23.094Z,76.81
2024-04-08T06:12:50.766Z,76.66
2024-04-08T06:15:17.966Z,76.73
2024-04-08T06:17:45.211Z,76.90
2024-04-08T06:20:12.440Z,76.87
2024-04-08T06:22:39.341Z,77.20
2024-04-08T06:25:07.875Z,76.69
2024-04-08T06:27:35.149Z,76.91
2024-04-08T06:30:02.919Z,76.80
2024-04-08T06:32:30.260Z,76.64
2024-04-08T06:34:57.096Z,76.43
2024-04-08T06:37:24.023Z,76.19
2024-04-08T06:39:51.174Z,76.20
2024-04-08T06:42:19.387Z,75.85
2024-04-08T06:44:52.900Z,75.30
2024-04-08T06:47:23.022Z,74.93
2024-04-08T06:49:50.151Z,74.72
2024-04-08T06:52:17.069Z,74.36
2024-04-08T06:54:45.115Z,73.99
2024-04-08T06:57:12.000Z,73.60
2024-04-08T06:59:39.590Z,72.56
2024-04-08T07:02:07.004Z,71.71
2024-04-08T07:04:34.067Z,70.62
2024-04-08T07:07:01.478Z,69.86
2024-04-08T07:09:30.967Z,68.82
2024-04-08T07:12:02.511Z,67.53
2024-04-08T07:14:29.623Z,66.55
2024-04-08T07:16:56.595Z,65.72
2024-04-08T07:19:23.623Z,64.55
2024-04-08T07:21:53.387Z,63.20
2024-04-08T07:24:21.815Z,61.89
2024-04-08T07:26:48.801Z,60.67
2024-04-08T07:29:16.463Z,59.37
2024-04-08T07:31:43.382Z,57.74
2024-04-08T07:34:10.785Z,57.00
2024-04-08T07:36:37.723Z,55.54
2024-04-08T07:39:04.665Z,54.84
2024-04-08T07:41:31.676Z,54.98
2024-04-08T07:43:58.597Z,53.93
2024-04-08T07:46:25.511Z,52.60
2024-04-08T07:48:52.463Z,51.24
2024-04-08T07:51:19.844Z,50.78
2024-04-08T07:53:46.871Z,49.69
2024-04-08T07:56:13.962Z,49.44
2024-04-08T07:58:42.092Z,48.33
2024-04-08T08:01:09.208Z,47.75
2024-04-08T08:03:36.692Z,46.72
2024-04-08T08:06:07.104Z,46.24
2024-04-08T08:08:36.068Z,45.81
2024-04-08T08:11:06.053Z,45.31
2024-04-08T08:13:34.276Z,44.86
2024-04-08T08:16:01.970Z,43.88
2024-04-08T08:18:30.591Z,43.57
2024-04-08T08:20:59.662Z,44.02
2024-04-08T08:23:26.684Z,43.91
2024-04-08T08:25:54.567Z,43.09
2024-04-08T08:28:22.685Z,43.09
2024-04-08T08:30:50.180Z,42.40
2024-04-08T08:33:17.194Z,43.08
2024-04-08T08:35:44.178Z,42.12
2024-04-08T08:38:11.456Z,42.08
2024-04-08T08:40:44.428Z,41.65
2024-04-08T08:43:12.643Z,41.57
2024-04-08T08:45:43.312Z,41.26
2024-04-08T08:48:10.349Z,41.03
2024-04-08T08:50:38.587Z,40.43
2024-04-08T08:53:06.226Z,39.75
2024-04-08T08:55:34.297Z,40.23
2024-04-08T08:58:05.888Z,39.85
2024-04-08T09:00:33.300Z,39.67
2024-04-08T09:03:01.797Z,39.58
2024-04-08T09:05:28.718Z,38.93
2024-04-08T09:07:55.643Z,38.83
2024-04-08T09:10:24.604Z,38.96
2024-04-08T09:12:53.354Z,37.98
2024-04-08T09:15:20.242Z,37.99
2024-04-08T09:17:47.415Z,38.17
2024-04-08T09:20:15.139Z,37.78
2024-04-08T09:22:42.333Z,37.29
2024-04-08T09:25:13.981Z,36.85
2024-04-08T09:27:41.101Z,36.85
2024-04-08T09:30:08.725Z,36.86
2024-04-08T09:32:36.797Z,37.24
2024-04-08T09:35:08.332Z,36.68
2024-04-08T09:37:35.378Z,36.70
2024-04-08T09:40:04.992Z,35.83
2024-04-08T09:42:34.919Z,34.74
2024-04-08T09:45:04.203Z,35.07
2024-04-08T09:47:32.239Z,34.05
2024-04-08T09:50:00.972Z,33.99
2024-04-08T09:52:29.171Z,34.65
2024-04-08T09:54:57.804Z,34.41
2024-04-08T09:57:28.960Z,34.07
2024-04-08T09:59:58.247Z,33.81
2024-04-08T10:02:38.109Z,34.12
2024-04-08T10:05:06.516Z,34.63
2024-04-08T10:07:34.355Z,34.65
2024-04-08T10:10:11.069Z,34.15
2024-04-08T10:12:38.507Z,33.91
2024-04-08T10:15:16.467Z,33.88
2024-04-08T10:17:43.927Z,33.40
2024-04-08T10:20:20.602Z,33.14
2024-04-08T10:22:48.285Z,32.81
2024-04-08T10:25:38.144Z,31.88
2024-04-08T10:28:07.484Z,32.27
2024-04-08T10:30:45.399Z,32.08
2024-04-08T10:33:12.975Z,31.86
2024-04-08T10:35:40.421Z,32.05
2024-04-08T10:38:08.568Z,31.83
2024-04-08T10:40:35.814Z,32.11
2024-04-08T10:43:03.132Z,31.72
2024-04-08T10:45:30.195Z,31.62
2024-04-08T10:48:04.049Z,31.64
2024-04-08T10:50:35.256Z,31.92
2024-04-08T10:53:04.001Z,31.84
2024-04-08T10:55:31.192Z,31.91
2024-04-08T10:57:58.252Z,31.56
2024-04-08T11:00:26.108Z,31.47
2024-04-08T11:02:53.256Z,31.47
2024-04-08T11:05:23.057Z,30.92
2024-04-08T11:07:50.236Z,31.13
2024-04-08T11:10:18.723Z,30.81
2024-04-08T11:12:46.551Z,31.30
2024-04-08T11:15:15.486Z,31.86
2024-04-08T11:17:43.158Z,32.55
2024-04-08T11:20:14.352Z,31.88
2024-04-08T11:22:41.571Z,31.71
2024-04-08T11:25:16.911Z,32.18
2024-04-08T11:27:45.380Z,32.27
2024-04-08T11:30:15.695Z,32.27
2024-04-08T11:32:43.252Z,31.84
2024-04-08T11:35:10.876Z,31.67
2024-04-08T11:37:38.052Z,30.84
2024-04-08T11:40:08.617Z,30.77
2024-04-08T11:42:35.746Z,30.23
2024-04-08T11:45:08.577Z,30.30
2024-04-08T11:47:37.083Z,30.74
2024-04-08T11:50:05.329Z,29.61
2024-04-08T11:52:32.717Z,29.62
2024-04-08T11:55:01.763Z,29.80
2024-04-08T11:57:30.794Z,29.86
2024-04-08T11:59:57.938Z,29.44
2024-04-08T12:02:25.184Z,29.55
2024-04-08T12:04:53.995Z,30.02
2024-04-08T12:07:21.279Z,29.59
2024-04-08T12:09:48.270Z,29.50
2024-04-08T12:12:15.387Z,29.09
2024-04-08T12:14:43.241Z,29.14
2024-04-08T12:17:10.805Z,28.95
2024-04-08T12:19:38.118Z,28.75
2024-04-08T12:22:05.220Z,28.33
2024-04-08T12:24:32.085Z,29.03
2024-04-08T12:26:58.995Z,28.73
2024-04-08T12:29:25.932Z,28.47
2024-04-08T12:31:53.819Z,28.59
2024-04-08T12:34:20.738Z,28.52
2024-04-08T12:36:47.657Z,28.11
2024-04-08T12:39:14.911Z,27.98
2024-04-08T12:41:41.814Z,28.07
2024-04-08T12:44:10.570Z,28.07
2024-04-08T12:46:37.692Z,28.05
2024-04-08T12:49:04.794Z,28.31
2024-04-08T12:51:32.034Z,28.26
2024-04-08T12:53:59.246Z,28.17
2024-04-08T12:56:26.282Z,27.90
2024-04-08T12:58:57.792Z,27.74
2024-04-08T13:01:26.353Z,27.51
2024-04-08T13:03:54.443Z,28.61
2024-04-08T13:06:21.885Z,28.13
2024-04-08T13:08:49.300Z,27.93
2024-04-08T13:11:17.017Z,28.07
2024-04-08T13:13:47.018Z,27.41
2024-04-08T13:16:16.074Z,27.66
2024-04-08T13:18:44.396Z,27.06
2024-04-08T13:21:12.425Z,27.10
2024-04-08T13:23:40.494Z,27.87
2024-04-08T13:26:11.127Z,27.11
2024-04-08T13:28:38.108Z,27.00
2024-04-08T13:31:05.413Z,26.15
2024-04-08T13:33:32.617Z,26.21
2024-04-08T13:36:00.680Z,26.04
2024-04-08T13:38:28.690Z,26.39
2024-04-08T13:40:55.575Z,25.64
2024-04-08T13:43:22.499Z,25.51
2024-04-08T13:45:49.649Z,25.78
2024-04-08T13:48:16.667Z,25.40
2024-04-08T13:50:43.965Z,26.13
2024-04-08T13:53:11.072Z,26.04
2024-04-08T13:55:39.644Z,25.97
2024-04-08T13:58:07.244Z,25.84
2024-04-08T14:00:34.950Z,26.11
2024-04-08T14:03:02.070Z,26.16
2024-04-08T14:05:29.050Z,26.14
2024-04-08T14:07:55.919Z,26.17
2024-04-08T14:10:22.773Z,26.26
2024-04-08T14:12:49.658Z,26.06
2024-04-08T14:15:17.628Z,25.63
2024-04-08T14:17:44.858Z,25.89
2024-04-08T14:20:11.956Z,26.15
2024-04-08T14:22:39.611Z,26.45
2024-04-08T14:25:07.139Z,26.07
2024-04-08T14:27:34.807Z,26.41
2024-04-08T14:30:02.101Z,26.05
2024-04-08T14:32:29.211Z,26.36
2024-04-08T14:34:56.802Z,26.19
2024-04-08T14:37:42.563Z,26.31
2024-04-08T14:40:11.356Z,26.22
2024-04-08T14:42:38.913Z,26.54
2024-04-08T14:45:06.390Z,26.93
2024-04-08T14:47:33.659Z,27.08
2024-04-08T14:50:00.839Z,27.05
2024-04-08T14:52:33.543Z,27.34
2024-04-08T14:55:07.423Z,28.07
2024-04-08T14:57:35.077Z,27.29
2024-04-08T15:00:02.254Z,28.18
2024-04-08T15:02:29.352Z,29.31
2024-04-08T15:04:56.355Z,30.02
2024-04-08T15:07:28.049Z,30.08
2024-04-08T15:09:56.554Z,30.02
2024-04-08T15:12:23.954Z,29.74
2024-04-08T15:14:50.995Z,30.05
2024-04-08T15:17:20.887Z,30.74
2024-04-08T15:19:49.497Z,30.97
2024-04-08T15:22:16.483Z,31.51
2024-04-08T15:24:45.002Z,30.96
2024-04-08T15:27:14.183Z,31.31
2024-04-08T15:29:43.909Z,32.24
2024-04-08T15:32:13.260Z,32.99
2024-04-08T15:34:42.320Z,33.46
2024-04-08T15:37:10.884Z,34.08
2024-04-08T15:39:38.216Z,34.23
2024-04-08T15:42:05.539Z,34.64
2024-04-08T15:44:32.571Z,35.09
2024-04-08T15:46:59.643Z,35.19
2024-04-08T15:49:26.779Z,34.18
2024-04-08T15:51:57.477Z,34.82
2024-04-08T15:54:25.515Z,35.24
2024-04-08T15:56:56.111Z,35.89
2024-04-08T15:59:23.069Z,36.04
2024-04-08T16:01:50.140Z,36.35
2024-04-08T16:04:17.345Z,36.82
2024-04-08T16:06:46.000Z,37.16
2024-04-08T16:09:14.125Z,37.14
2024-04-08T16:11:41.328Z,37.54
2024-04-08T16:14:08.359Z,37.73
2024-04-08T16:16:36.020Z,38.06
2024-04-08T16:19:02.900Z,38.35
2024-04-08T16:21:29.919Z,38.69
2024-04-08T16:23:57.501Z,38.44
2024-04-08T16:26:25.770Z,38.51
2024-04-08T16:28:59.840Z,39.23
2024-04-08T16:31:33.437Z,39.28
2024-04-08T16:34:01.623Z,40.36
2024-04-08T16:36:30.612Z,40.32
2024-04-08T16:38:58.961Z,40.97
2024-04-08T16:41:26.319Z,41.23
2024-04-08T16:43:53.375Z,41.68
2024-04-08T16:46:24.227Z,42.29
2024-04-08T16:48:51.858Z,42.45
2024-04-08T16:51:20.451Z,42.60
2024-04-08T16:53:47.542Z,42.75
2024-04-08T16:56:14.459Z,42.99
2024-04-08T16:58:41.342Z,43.37
2024-04-08T17:01:08.302Z,43.90
2024-04-08T17:03:35.998Z,44.07
2024-04-08T17:06:04.742Z,44.48
2024-04-08T17:08:32.744Z,44.82
2024-04-08T17:11:02.505Z,44.89
2024-04-08T17:13:31.120Z,45.28
2024-04-08T17:15:58.494Z,45.60
2024-04-08T17:18:26.114Z,46.73
2024-04-08T17:20:57.315Z,47.20
2024-04-08T17:23:25.458Z,47.30
2024-04-08T17:25:54.060Z,47.42
2024-04-08T17:28:21.075Z,47.47
2024-04-08T17:30:58.648Z,48.21
2024-04-08T17:33:27.593Z,48.32
2024-04-08T17:36:02.806Z,48.62
2024-04-08T17:38:30.280Z,48.81
2024-04-08T17:41:01.439Z,49.27
2024-04-08T17:43:32.790Z,49.11
2024-04-08T17:46:04.135Z,49.29
2024-04-08T17:48:36.472Z,50.09
2024-04-08T17:51:05.442Z,50.28
2024-04-08T17:53:34.126Z,50.57
2024-04-08T17:56:02.830Z,50.85
2024-04-08T17:58:31.376Z,51.02
2024-04-08T18:01:05.296Z,51.38
2024-04-08T18:03:32.769Z,51.40
2024-04-08T18:06:24.169Z,52.21
2024-04-08T18:08:52.558Z,52.37
2024-04-08T18:11:22.244Z,52.43
2024-04-08T18:13:49.523Z,52.43
2024-04-08T18:16:21.882Z,53.13
2024-04-08T18:18:51.079Z,53.35
2024-04-08T18:21:19.750Z,53.33
2024-04-08T18:23:47.650Z,53.96
2024-04-08T18:26:20.245Z,54.05
2024-04-08T18:28:56.768Z,54.31
2024-04-08T18:31:23.747Z,54.46
2024-04-08T18:33:54.772Z,54.96
2024-04-08T18:36:21.953Z,55.17
2024-04-08T18:38:51.188Z,54.94
2024-04-08T18:41:19.783Z,55.40
2024-04-08T18:43:47.039Z,55.67
2024-04-08T18:46:24.424Z,56.04
2024-04-08T18:48:52.166Z,55.99
2024-04-08T18:51:19.276Z,55.96
2024-04-08T18:53:46.939Z,56.24
2024-04-08T18:56:14.191Z,56.26
2024-04-08T18:58:41.112Z,56.91
2024-04-08T19:01:16.557Z,56.81
2024-04-08T19:03:47.668Z,56.87
2024-04-08T19:06:14.998Z,57.09
2024-04-08T19:08:41.838Z,57.45
2024-04-08T19:11:08.821Z,57.59
2024-04-08T19:13:35.860Z,57.63
2024-04-08T19:16:06.332Z,57.76
2024-04-08T19:18:35.113Z,58.01
2024-04-08T19:21:09.360Z,58.09
2024-04-08T19:23:36.537Z,57.80
2024-04-08T19:26:04.755Z,58.01
2024-04-08T19:28:32.325Z,58.37
2024-04-08T19:31:00.359Z,58.20
2024-04-08T19:33:27.463Z,58.43
2024-04-08T19:35:57.945Z,58.86
2024-04-08T19:38:28.936Z,58.74
2024-04-08T19:41:03.606Z,59.00
2024-04-08T19:43:30.500Z,58.74
2024-04-08T19:46:06.352Z,58.77
2024-04-08T19:48:42.442Z,59.13
2024-04-08T19:51:16.651Z,59.44
2024-04-08T19:53:46.882Z,59.33
2024-04-08T19:56:19.752Z,59.50
2024-04-08T19:58:47.605Z,59.62
2024-04-08T20:01:14.624Z,59.53
2024-04-08T20:03:42.245Z,59.81
2024-04-08T20:06:09.719Z,60.29
2024-04-08T20:08:37.520Z,60.46
2024-04-08T20:11:06.659Z,60.35
2024-04-08T20:13:34.681Z,60.50
2024-04-08T20:16:22.561Z,60.86
2024-04-08T20:18:51.066Z,60.51
2024-04-08T20:21:21.026Z,61.05
2024-04-08T20:23:48.039Z,60.94
2024-04-08T20:26:15.020Z,61.15
2024-04-08T20:28:42.353Z,61.34
2024-04-08T20:31:10.054Z,61.25
2024-04-08T20:33:38.601Z,61.79
2024-04-08T20:36:08.068Z,61.53
2024-04-08T20:38:36.410Z,61.73
2024-04-08T20:41:05.691Z,61.92
2024-04-08T20:43:33.761Z,61.88
2024-04-08T20:46:00.818Z,62.29
2024-04-08T20:48:28.034Z,62.13
2024-04-08T20:50:59.866Z,62.48
2024-04-08T20:53:28.082Z,62.50
2024-04-08T20:55:59.679Z,62.66
2024-04-08T20:58:27.973Z,62.84
2024-04-08T21:00:57.281Z,62.70
2024-04-08T21:03:24.751Z,62.95
2024-04-08T21:06:05.206Z,63.20
2024-04-08T21:08:32.531Z,62.98
2024-04-08T21:11:01.011Z,62.93
2024-04-08T21:13:28.461Z,62.95
2024-04-08T21:15:59.609Z,63.29
2024-04-08T21:18:27.406Z,63.39
2024-04-08T21:21:05.032Z,63.44
2024-04-08T21:23:33.259Z,63.80
2024-04-08T21:26:14.800Z,63.55
2024-04-08T21:28:43.595Z,63.74
2024-04-08T21:31:11.480Z,63.85
2024-04-08T21:33:40.339Z,63.87
2024-04-08T21:36:08.556Z,63.96
2024-04-08T21:38:36.086Z,64.21
2024-04-08T21:41:11.166Z,64.34
2024-04-08T21:43:39.191Z,64.09
2024-04-08T21:46:07.631Z,64.63
2024-04-08T21:48:35.194Z,64.58
2024-04-08T21:51:05.761Z,64.58
2024-04-08T21:53:32.839Z,64.97
2024-04-08T21:56:05.319Z,64.87
2024-04-08T21:58:35.743Z,65.11
2024-04-08T22:01:07.155Z,65.00
2024-04-08T22:03:34.452Z,65.17
2024-04-08T22:06:02.501Z,65.44
2024-04-08T22:08:29.872Z,65.73
2024-04-08T22:10:57.738Z,65.64
2024-04-08T22:13:25.606Z,65.63
2024-04-08T22:15:53.188Z,65.33
2024-04-08T22:18:24.332Z,65.47
2024-04-08T22:20:52.584Z,65.52
2024-04-08T22:23:20.248Z,65.87
2024-04-08T22:25:47.598Z,65.78
2024-04-08T22:28:14.513Z,65.88
2024-04-08T22:30:42.357Z,65.99
2024-04-08T22:33:09.612Z,65.91
2024-04-08T22:35:37.195Z,66.15
2024-04-08T22:38:04.588Z,66.47
2024-04-08T22:40:31.607Z,66.56
2024-04-08T22:42:58.480Z,66.60
2024-04-08T22:45:26.419Z,66.64
2024-04-08T22:47:53.652Z,66.64
2024-04-08T22:50:22.007Z,67.04
2024-04-08T22:52:49.858Z,67.09
2024-04-08T22:55:16.914Z,67.09
2024-04-08T22:57:44.709Z,67.07
2024-04-08T23:00:13.999Z,67.19
2024-04-08T23:02:41.617Z,67.26
2024-04-08T23:05:09.569Z,66.96
2024-04-08T23:07:37.159Z,67.19
2024-04-08T23:10:05.200Z,67.70
2024-04-08T23:12:32.644Z,67.60
2024-04-08T23:14:59.760Z,67.67
2024-04-08T23:17:26.792Z,67.57
2024-04-08T23:19:53.724Z,67.31
2024-04-08T23:22:20.694Z,67.79
2024-04-08T23:24:47.912Z,67.65
2024-04-08T23:27:15.185Z,67.98
2024-04-08T23:29:42.227Z,67.74
2024-04-08T23:32:10.414Z,68.26
2024-04-08T23:34:37.850Z,68.35
2024-04-08T23:37:05.856Z,68.16
2024-04-08T23:39:32.888Z,68.25
2024-04-08T23:42:00.128Z,68.50
2024-04-08T23:44:28.278Z,68.63
2024-04-08T23:46:55.246Z,68.63
2024-04-08T23:49:22.288Z,68.51
2024-04-08T23:51:49.782Z,68.66
2024-04-08T23:54:16.859Z,68.70
2024-04-08T23:56:43.815Z,68.90
2024-04-08T23:59:10.849Z,68.65
